Time;durP1;ratioP1;P1;durP2;ratioP2;P2;SDS_P1;SDS_P2;PMS_P1;PMS_P2;Temp;Humidity;BMP_temperature;BMP_pressure;BME280_temperature;BME280_humidity;BME280_pressure;Samples;Min_cycle;Max_cycle;Signal;HPM_P1;HPM_P2
2020/11/01 00:00:19;;;;;;;5.4;2.2;;;;;;;;;;;;;
2020/11/01 00:02:44;;;;;;;5.8;2.6;;;;;;;;;;;;;
2020/11/01 00:05:09;;;;;;;5.7;2.8;;;;;;;;;;;;;
2020/11/01 00:07:34;;;;;;;4.5;2.4;;;;;;;;;;;;;
2020/11/01 00:09:59;;;;;;;8.4;2.1;;;;;;;;;;;;;
2020/11/01 00:12:26;;;;;;;9.9;3.2;;;;;;;;;;;;;
2020/11/01 00:14:51;;;;;;;8.1;2.9;;;;;;;;;;;;;
2020/11/01 00:17:17;;;;;;;3.5;2.3;;;;;;;;;;;;;
2020/11/01 00:19:42;;;;;;;7.4;2.6;;;;;;;;;;;;;
2020/11/01 00:22:08;;;;;;;4.4;2.2;;;;;;;;;;;;;
2020/11/01 00:24:33;;;;;;;3.9;2.2;;;;;;;;;;;;;
2020/11/01 00:27:01;;;;;;;3.6;2.1;;;;;;;;;;;;;
2020/11/01 00:29:26;;;;;;;3.8;1.9;;;;;;;;;;;;;
2020/11/01 00:31:51;;;;;;;3.5;2.1;;;;;;;;;;;;;
2020/11/01 00:34:16;;;;;;;4.4;1.9;;;;;;;;;;;;;
2020/11/01 00:36:42;;;;;;;3.6;2.2;;;;;;;;;;;;;
2020/11/01 00:39:07;;;;;;;4;2.2;;;;;;;;;;;;;
2020/11/01 00:41:33;;;;;;;5.9;1.8;;;;;;;;;;;;;
2020/11/01 00:43:58;;;;;;;4.4;1.7;;;;;;;;;;;;;
2020/11/01 00:46:25;;;;;;;4.5;1.9;;;;;;;;;;;;;
2020/11/01 00:48:50;;;;;;;3.5;1.9;;;;;;;;;;;;;
2020/11/01 00:51:16;;;;;;;3.7;1.6;;;;;;;;;;;;;
2020/11/01 00:53:41;;;;;;;3;1.9;;;;;;;;;;;;;
2020/11/01 00:56:07;;;;;;;3.1;2;;;;;;;;;;;;;
2020/11/01 00:58:32;;;;;;;5.3;2.4;;;;;;;;;;;;;
2020/11/01 01:01:00;;;;;;;4.6;2.3;;;;;;;;;;;;;
2020/11/01 01:03:25;;;;;;;3.2;1.9;;;;;;;;;;;;;
2020/11/01 01:05:51;;;;;;;4.2;2.3;;;;;;;;;;;;;
2020/11/01 01:08:16;;;;;;;6.9;2.6;;;;;;;;;;;;;
2020/11/01 01:10:41;;;;;;;6.4;2.3;;;;;;;;;;;;;
2020/11/01 01:13:06;;;;;;;5.1;2.4;;;;;;;;;;;;;
2020/11/01 01:15:33;;;;;;;4;2.2;;;;;;;;;;;;;
2020/11/01 01:17:58;;;;;;;4.6;2.1;;;;;;;;;;;;;
2020/11/01 01:20:23;;;;;;;5.4;2.5;;;;;;;;;;;;;
2020/11/01 01:22:48;;;;;;;5.6;2.7;;;;;;;;;;;;;
2020/11/01 01:25:14;;;;;;;4.7;2.4;;;;;;;;;;;;;
2020/11/01 01:27:39;;;;;;;9.8;2.7;;;;;;;;;;;;;
2020/11/01 01:30:05;;;;;;;4.8;1.9;;;;;;;;;;;;;
2020/11/01 01:32:30;;;;;;;7;2;;;;;;;;;;;;;
2020/11/01 01:34:56;;;;;;;4.9;2.4;;;;;;;;;;;;;
2020/11/01 01:37:21;;;;;;;4.3;2.5;;;;;;;;;;;;;
2020/11/01 01:39:48;;;;;;;6.1;2.6;;;;;;;;;;;;;
2020/11/01 01:42:13;;;;;;;4.5;2.4;;;;;;;;;;;;;
2020/11/01 01:44:39;;;;;;;5.4;2.1;;;;;;;;;;;;;
2020/11/01 01:47:04;;;;;;;7.4;2.4;;;;;;;;;;;;;
2020/11/01 01:49:31;;;;;;;3.5;2.1;;;;;;;;;;;;;
2020/11/01 01:51:56;;;;;;;3.8;1.9;;;;;;;;;;;;;
2020/11/01 01:54:21;;;;;;;4.4;2.3;;;;;;;;;;;;;
2020/11/01 01:56:46;;;;;;;3.9;2.3;;;;;;;;;;;;;
2020/11/01 01:59:12;;;;;;;6.2;2.3;;;;;;;;;;;;;
2020/11/01 02:01:38;;;;;;;3.4;2.3;;;;;;;;;;;;;
2020/11/01 02:04:04;;;;;;;4.3;2.2;;;;;;;;;;;;;
2020/11/01 02:06:29;;;;;;;5.1;2.8;;;;;;;;;;;;;
2020/11/01 02:08:55;;;;;;;5.4;2.3;;;;;;;;;;;;;
2020/11/01 02:11:20;;;;;;;4.8;2.1;;;;;;;;;;;;;
2020/11/01 02:13:46;;;;;;;5.1;2.7;;;;;;;;;;;;;
2020/11/01 02:16:11;;;;;;;3.6;1.8;;;;;;;;;;;;;
2020/11/01 02:18:38;;;;;;;2.4;1.7;;;;;;;;;;;;;
2020/11/01 02:21:03;;;;;;;2.7;1.7;;;;;;;;;;;;;
2020/11/01 02:23:29;;;;;;;3.9;1.9;;;;;;;;;;;;;
2020/11/01 02:25:54;;;;;;;3;1.9;;;;;;;;;;;;;
2020/11/01 02:28:20;;;;;;;3.9;1.9;;;;;;;;;;;;;
2020/11/01 02:30:45;;;;;;;3.3;1.9;;;;;;;;;;;;;
2020/11/01 02:33:12;;;;;;;1.9;1.4;;;;;;;;;;;;;
2020/11/01 02:35:37;;;;;;;2.5;1.8;;;;;;;;;;;;;
2020/11/01 02:38:03;;;;;;;2.8;1.7;;;;;;;;;;;;;
2020/11/01 02:40:28;;;;;;;3.4;1.8;;;;;;;;;;;;;
2020/11/01 02:42:54;;;;;;;4.4;2.2;;;;;;;;;;;;;
2020/11/01 02:45:19;;;;;;;4.3;1.7;;;;;;;;;;;;;
2020/11/01 02:47:45;;;;;;;1.9;1.4;;;;;;;;;;;;;
2020/11/01 02:50:10;;;;;;;3.7;1.7;;;;;;;;;;;;;
2020/11/01 02:52:36;;;;;;;6;2;;;;;;;;;;;;;
2020/11/01 02:55:02;;;;;;;2.7;1.7;;;;;;;;;;;;;
2020/11/01 02:57:27;;;;;;;2.3;1.6;;;;;;;;;;;;;
2020/11/01 02:59:52;;;;;;;4.6;2.2;;;;;;;;;;;;;
2020/11/01 03:02:19;;;;;;;3.2;1.9;;;;;;;;;;;;;
2020/11/01 03:04:44;;;;;;;5.5;1.8;;;;;;;;;;;;;
2020/11/01 03:07:10;;;;;;;2.9;1.7;;;;;;;;;;;;;
2020/11/01 03:09:35;;;;;;;2.9;1.9;;;;;;;;;;;;;
2020/11/01 03:12:00;;;;;;;3.1;1.8;;;;;;;;;;;;;
2020/11/01 03:14:26;;;;;;;3.1;2;;;;;;;;;;;;;
2020/11/01 03:16:53;;;;;;;2.5;1.7;;;;;;;;;;;;;
2020/11/01 03:19:17;;;;;;;2.7;1.7;;;;;;;;;;;;;
2020/11/01 03:21:44;;;;;;;4.2;1.9;;;;;;;;;;;;;
2020/11/01 03:24:09;;;;;;;4.1;2.3;;;;;;;;;;;;;
2020/11/01 03:26:34;;;;;;;3.9;1.9;;;;;;;;;;;;;
2020/11/01 03:29:00;;;;;;;4;1.7;;;;;;;;;;;;;
2020/11/01 03:31:28;;;;;;;2.2;1.6;;;;;;;;;;;;;
2020/11/01 03:33:53;;;;;;;3.7;1.9;;;;;;;;;;;;;
2020/11/01 03:36:18;;;;;;;3.3;1.8;;;;;;;;;;;;;
2020/11/01 03:38:43;;;;;;;3.7;1.7;;;;;;;;;;;;;
2020/11/01 03:41:09;;;;;;;3.9;1.8;;;;;;;;;;;;;
2020/11/01 03:43:34;;;;;;;2.9;1.5;;;;;;;;;;;;;
2020/11/01 03:46:00;;;;;;;2.4;1.4;;;;;;;;;;;;;
2020/11/01 03:48:25;;;;;;;2.2;1.5;;;;;;;;;;;;;
2020/11/01 03:50:52;;;;;;;3.3;1.5;;;;;;;;;;;;;
2020/11/01 03:53:17;;;;;;;6.3;1.8;;;;;;;;;;;;;
2020/11/01 03:55:44;;;;;;;3.3;1.6;;;;;;;;;;;;;
2020/11/01 03:58:09;;;;;;;3.2;1.7;;;;;;;;;;;;;
2020/11/01 04:02:30;;;;;;;2.2;1.3;;;;;;;6.25;88.98926;942.7639;;;;
2020/11/01 04:04:58;;;;;;;1.7;1.3;;;;;;;6.1;89.7373;942.8621;;;;
2020/11/01 04:07:23;;;;;;;1.8;1.3;;;;;;;6.14;89.62207;942.903;;;;
2020/11/01 04:09:51;;;;;;;4.1;1.6;;;;;;;5.97;90.25098;942.8611;;;;
2020/11/01 04:12:16;;;;;;;2.7;1.5;;;;;;;6.03;90.32129;942.7885;;;;
2020/11/01 04:14:44;;;;;;;1.8;1.4;;;;;;;6.18;89.7998;942.7905;;;;
2020/11/01 04:17:09;;;;;;;2.7;1.4;;;;;;;6.06;90.08008;942.755;;;;
2020/11/01 04:19:38;;;;;;;2;1.4;;;;;;;6.04;90.46973;942.671;;;;
2020/11/01 04:22:07;;;;;;;2.3;1.4;;;;;;;5.94;91.09277;942.7054;;;;
2020/11/01 04:24:32;;;;;;;1.6;1.5;;;;;;;5.93;91.125;942.6096;;;;
2020/11/01 04:27:00;;;;;;;3.2;1.4;;;;;;;5.88;91.53125;942.7195;;;;
2020/11/01 04:29:25;;;;;;;4.7;1.1;;;;;;;5.92;91.57422;942.6788;;;;
2020/11/01 04:31:53;;;;;;;2.1;1.3;;;;;;;5.88;91.76855;942.6793;;;;
2020/11/01 04:34:18;;;;;;;2.2;1.3;;;;;;;5.89;91.85352;942.6451;;;;
2020/11/01 04:36:45;;;;;;;3.5;1.6;;;;;;;6.16;90.29102;942.603;;;;
2020/11/01 04:39:10;;;;;;;3;1.5;;;;;;;6.2;89.82617;942.5726;;;;
2020/11/01 04:41:35;;;;;;;4;1.6;;;;;;;6.17;89.82227;942.5443;;;;
2020/11/01 04:44:02;;;;;;;1.8;1.4;;;;;;;6.05;90.55078;942.5251;;;;
2020/11/01 04:46:27;;;;;;;3.1;1.6;;;;;;;6.09;90.40234;942.4782;;;;
2020/11/01 04:48:52;;;;;;;2.3;1.4;;;;;;;6.09;90.40234;942.4626;;;;
2020/11/01 04:51:18;;;;;;;2.6;1.3;;;;;;;6.37;89.19434;942.4514;;;;
2020/11/01 04:53:43;;;;;;;2.8;1.6;;;;;;;6.41;88.91992;942.3666;;;;
2020/11/01 04:56:09;;;;;;;2.9;1.3;;;;;;;6.31;89.02344;942.413;;;;
2020/11/01 04:58:34;;;;;;;2.5;1.5;;;;;;;6.26;89.78125;942.4358;;;;
2020/11/01 05:01:06;;;;;;;3.5;1.6;;;;;;;6.24;89.50586;942.3688;;;;
2020/11/01 05:03:27;;;;;;;3.9;1.8;;;;;;;6.26;89.82813;942.2983;;;;
2020/11/01 05:05:53;;;;;;;2.4;1.4;;;;;;;6.42;89.25098;942.3258;;;;
2020/11/01 05:08:18;;;;;;;3.5;1.5;;;;;;;6.32;89.24219;942.2988;;;;
2020/11/01 05:10:45;;;;;;;3.7;2;;;;;;;6.18;90.17285;942.274;;;;
2020/11/01 05:13:10;;;;;;;3.3;1.7;;;;;;;6.25;90.08594;942.2236;;;;
2020/11/01 05:15:37;;;;;;;4;2.1;;;;;;;6.33;89.84082;942.1859;;;;
2020/11/01 05:18:02;;;;;;;2.5;1.5;;;;;;;6.38;89.36621;942.1724;;;;
2020/11/01 05:20:28;;;;;;;2.5;1.4;;;;;;;6.34;89.43555;942.1671;;;;
2020/11/01 05:22:53;;;;;;;4;1.1;;;;;;;6.5;89.01758;942.2025;;;;
2020/11/01 05:25:21;;;;;;;2.6;1.3;;;;;;;6.64;88.43457;942.0946;;;;
2020/11/01 05:27:49;;;;;;;4.1;1.5;;;;;;;6.67;88.23633;942.1035;;;;
2020/11/01 05:30:13;;;;;;;4.2;1.3;;;;;;;6.69;88.35547;942.0486;;;;
2020/11/01 05:32:40;;;;;;;2.5;1.4;;;;;;;6.73;87.67383;942.015;;;;
2020/11/01 05:35:04;;;;;;;2.3;1.4;;;;;;;6.79;87.57227;941.9622;;;;
2020/11/01 05:37:29;;;;;;;3.6;1.4;;;;;;;6.73;87.93457;941.9344;;;;
2020/11/01 05:39:54;;;;;;;4.2;1.5;;;;;;;6.95;87.35645;941.8928;;;;
2020/11/01 05:42:20;;;;;;;3;1.9;;;;;;;7.1;86.00586;941.9132;;;;
2020/11/01 05:44:46;;;;;;;3.6;1.9;;;;;;;6.97;86.40918;941.8751;;;;
2020/11/01 05:47:11;;;;;;;3.4;1.5;;;;;;;7.18;86.21289;941.9011;;;;
2020/11/01 05:49:36;;;;;;;3.5;1.6;;;;;;;7.06;86.49512;941.9302;;;;
2020/11/01 05:52:03;;;;;;;6.9;1.7;;;;;;;7;87.20703;941.8585;;;;
2020/11/01 05:54:28;;;;;;;3.1;1.4;;;;;;;7.16;85.87109;941.9086;;;;
2020/11/01 05:56:53;;;;;;;3.4;1.8;;;;;;;7.22;86.1875;941.8835;;;;
2020/11/01 05:59:18;;;;;;;3;1.8;;;;;;;7.36;85.37793;941.8557;;;;
2020/11/01 06:01:44;;;;;;;5.3;3;;;;;;;7.21;85.86914;941.9434;;;;
2020/11/01 06:04:09;;;;;;;4.4;2.7;;;;;;;7.11;86.71973;941.8421;;;;
2020/11/01 06:06:36;;;;;;;4.7;2.7;;;;;;;7.24;86.125;941.8374;;;;
2020/11/01 06:09:01;;;;;;;3.1;1.9;;;;;;;7.17;86.36035;941.7947;;;;
2020/11/01 06:11:27;;;;;;;2.7;1.9;;;;;;;7.12;86.38281;941.7363;;;;
2020/11/01 06:13:52;;;;;;;3.2;1.7;;;;;;;7.1;86.80762;941.7104;;;;
2020/11/01 06:16:19;;;;;;;2.8;1.7;;;;;;;7.09;86.62695;941.6763;;;;
2020/11/01 06:18:45;;;;;;;3;1.7;;;;;;;7.01;86.91797;941.6986;;;;
2020/11/01 06:21:10;;;;;;;2.3;1.4;;;;;;;7.02;87.34863;941.7264;;;;
2020/11/01 06:23:35;;;;;;;2.2;1.5;;;;;;;7.1;87.37402;941.666;;;;
2020/11/01 06:26:00;;;;;;;2.2;1.4;;;;;;;7.05;86.99121;941.7471;;;;
2020/11/01 06:28:25;;;;;;;2.4;1.9;;;;;;;7.06;87.65039;941.7441;;;;
2020/11/01 06:30:54;;;;;;;3;1.7;;;;;;;7.12;86.9043;941.7689;;;;
2020/11/01 06:33:19;;;;;;;3.8;1.8;;;;;;;7.14;86.56836;941.8113;;;;
2020/11/01 06:35:46;;;;;;;3.8;1.5;;;;;;;7.2;87.14746;941.8067;;;;
2020/11/01 06:38:12;;;;;;;2.2;1.2;;;;;;;7.31;88.2002;941.7269;;;;
2020/11/01 06:40:37;;;;;;;5.6;1.9;;;;;;;7.42;87.37402;941.7896;;;;
2020/11/01 06:43:02;;;;;;;2.2;1.4;;;;;;;7.5;84.59961;941.7654;;;;
2020/11/01 06:45:32;;;;;;;3.7;1.6;;;;;;;7.65;83.91602;941.7791;;;;
2020/11/01 06:47:59;;;;;;;3.3;1.6;;;;;;;8.05;81.58887;941.7026;;;;
2020/11/01 06:50:24;;;;;;;2.7;1.5;;;;;;;8.09;81.07129;941.7131;;;;
2020/11/01 06:52:50;;;;;;;1.7;1.5;;;;;;;8.34;80.36914;941.6028;;;;
2020/11/01 06:55:15;;;;;;;2.4;1.5;;;;;;;8.27;80.56055;941.5692;;;;
2020/11/01 06:57:42;;;;;;;4.4;2;;;;;;;8.42;79.91895;941.5288;;;;
2020/11/01 07:00:07;;;;;;;4.6;2.7;;;;;;;8.47;80.50684;941.5331;;;;
2020/11/01 07:02:35;;;;;;;4.4;2.1;;;;;;;8.23;81.49609;941.5556;;;;
2020/11/01 07:05:00;;;;;;;3.2;2.1;;;;;;;8.12;82.75879;941.4695;;;;
2020/11/01 07:07:25;;;;;;;4.9;1.9;;;;;;;8.16;82.99414;941.4752;;;;
2020/11/01 07:09:50;;;;;;;4.3;1.8;;;;;;;8.1;82.93652;941.4802;;;;
2020/11/01 07:12:17;;;;;;;2.7;1.4;;;;;;;8.08;83.37402;941.4035;;;;
2020/11/01 07:14:42;;;;;;;2.7;1.4;;;;;;;8.15;82.96777;941.3664;;;;
2020/11/01 07:17:10;;;;;;;3;1.4;;;;;;;8.51;81.61914;941.4135;;;;
2020/11/01 07:19:35;;;;;;;2.7;0.8;;;;;;;8.93;78.30762;941.3889;;;;
2020/11/01 07:22:02;;;;;;;2.2;1.2;;;;;;;9.22;77.2793;941.4143;;;;
2020/11/01 07:24:27;;;;;;;3.5;1.4;;;;;;;9.48;73.84082;941.4345;;;;
2020/11/01 07:26:52;;;;;;;1.9;1.2;;;;;;;9.69;74.52539;941.4005;;;;
2020/11/01 07:29:18;;;;;;;3.1;1.7;;;;;;;9.89;73.58008;941.4431;;;;
2020/11/01 07:31:43;;;;;;;4.5;2;;;;;;;9.89;73.95605;941.4695;;;;
2020/11/01 07:34:10;;;;;;;4.7;2.3;;;;;;;9.97;74.12793;941.446;;;;
2020/11/01 07:36:35;;;;;;;3.2;2;;;;;;;9.89;74.12695;941.3994;;;;
2020/11/01 07:39:01;;;;;;;8.2;2.3;;;;;;;9.86;74.85156;941.3616;;;;
2020/11/01 07:41:27;;;;;;;3.9;2;;;;;;;9.98;74.66504;941.3348;;;;
2020/11/01 07:43:52;;;;;;;3.9;1.9;;;;;;;9.93;74.65723;941.342;;;;
2020/11/01 07:46:18;;;;;;;1.9;1.3;;;;;;;10.06;73.88086;941.3214;;;;
2020/11/01 07:48:44;;;;;;;3;1.3;;;;;;;10.17;73.31934;941.4066;;;;
2020/11/01 07:51:09;;;;;;;2.4;1.3;;;;;;;10.25;69.71582;941.3791;;;;
2020/11/01 07:53:35;;;;;;;2.7;1.1;;;;;;;10.47;67.91309;941.4217;;;;
2020/11/01 07:56:00;;;;;;;2;1.1;;;;;;;10.72;67.67871;941.4152;;;;
2020/11/01 07:58:27;;;;;;;2.9;1.3;;;;;;;10.76;69.43164;941.4197;;;;
2020/11/01 08:00:52;;;;;;;3;1.3;;;;;;;11.02;67.39355;941.4412;;;;
2020/11/01 08:03:20;;;;;;;2;1.3;;;;;;;10.99;69.8125;941.4151;;;;
2020/11/01 08:05:45;;;;;;;1.8;1.1;;;;;;;10.99;71.37891;941.4565;;;;
2020/11/01 08:08:11;;;;;;;3.2;1.5;;;;;;;11.17;71.77246;941.4941;;;;
2020/11/01 08:10:36;;;;;;;1;0.8;;;;;;;11.26;70.83887;941.5266;;;;
2020/11/01 08:13:03;;;;;;;4.5;1.7;;;;;;;11.33;70.41406;941.5353;;;;
2020/11/01 08:15:28;;;;;;;2.5;1.7;;;;;;;11.24;72.41504;941.5519;;;;
2020/11/01 08:17:55;;;;;;;5.9;1.8;;;;;;;11.48;71.18457;941.6434;;;;
2020/11/01 08:20:20;;;;;;;1.9;1.3;;;;;;;11.4;71.33105;941.7141;;;;
2020/11/01 08:22:46;;;;;;;3.6;2.3;;;;;;;11.53;70.80273;941.6806;;;;
2020/11/01 08:25:11;;;;;;;7.1;2.8;;;;;;;11.6;69.69238;941.7596;;;;
2020/11/01 08:27:37;;;;;;;5.6;3;;;;;;;11.49;71.29883;941.803;;;;
2020/11/01 08:30:02;;;;;;;4;2.2;;;;;;;11.47;71.84668;941.8928;;;;
2020/11/01 08:32:31;;;;;;;3.9;2.4;;;;;;;11.55;72.19141;941.8403;;;;
2020/11/01 08:34:56;;;;;;;4.6;2.4;;;;;;;11.56;72.02051;941.8611;;;;
2020/11/01 08:37:22;;;;;;;9;2.9;;;;;;;11.39;72.40527;941.8884;;;;
2020/11/01 08:39:47;;;;;;;2.8;1.9;;;;;;;11.3;72.36719;941.8794;;;;
2020/11/01 08:42:13;;;;;;;2.4;1.9;;;;;;;11.36;72.83398;941.8889;;;;
2020/11/01 08:44:48;;;;;;;4.5;2.1;;;;;;;11.54;71.74414;941.8826;;;;
2020/11/01 08:47:04;;;;;;;4.3;2.1;;;;;;;11.5;71.49609;941.8756;;;;
2020/11/01 08:49:30;;;;;;;2.6;1.8;;;;;;;11.49;72.57031;941.945;;;;
2020/11/01 08:51:55;;;;;;;4.6;1.9;;;;;;;11.63;72.10059;941.9205;;;;
2020/11/01 08:54:21;;;;;;;2.5;1.8;;;;;;;11.76;71.28711;941.9562;;;;
2020/11/01 08:56:46;;;;;;;3.3;1.7;;;;;;;11.79;71.33789;941.9999;;;;
2020/11/01 08:59:12;;;;;;;2.8;1.4;;;;;;;11.87;71.72949;942.0075;;;;
2020/11/01 09:01:37;;;;;;;3.6;1.8;;;;;;;11.92;70.95898;942.0416;;;;
2020/11/01 09:04:06;;;;;;;3.7;1.9;;;;;;;11.94;71.24805;942.0656;;;;
2020/11/01 09:06:31;;;;;;;1.3;1.2;;;;;;;11.79;70.61816;942.0614;;;;
2020/11/01 09:08:56;;;;;;;3.1;1.4;;;;;;;11.92;68.86133;942.0965;;;;
2020/11/01 09:11:21;;;;;;;3.2;1.6;;;;;;;12.03;68.8457;942.0557;;;;
2020/11/01 09:13:50;;;;;;;1.5;1.3;;;;;;;12.12;67.69141;942.0725;;;;
2020/11/01 09:16:15;;;;;;;4.3;1.9;;;;;;;12.22;67.69531;942.0817;;;;
2020/11/01 09:18:41;;;;;;;2.1;1.4;;;;;;;12.39;66.49414;942.0911;;;;
2020/11/01 09:21:07;;;;;;;5.1;2.1;;;;;;;12.5;70.14746;942.1091;;;;
2020/11/01 09:23:33;;;;;;;5;1.8;;;;;;;12.71;70.6748;942.1119;;;;
2020/11/01 09:25:58;;;;;;;4;2.1;;;;;;;12.89;69.94434;942.1046;;;;
2020/11/01 09:28:26;;;;;;;5.9;1.9;;;;;;;13.03;64.43262;942.1074;;;;
2020/11/01 09:30:51;;;;;;;2.6;1.7;;;;;;;13.02;65.06445;942.1217;;;;
2020/11/01 09:33:18;;;;;;;8.1;2.5;;;;;;;13;62.98242;942.1716;;;;
2020/11/01 09:35:44;;;;;;;4.4;2.4;;;;;;;13.04;64.20605;942.1658;;;;
2020/11/01 09:38:10;;;;;;;3;1.6;;;;;;;13.05;64.47168;942.1588;;;;
2020/11/01 09:40:36;;;;;;;3.5;2.2;;;;;;;13.13;64.57422;942.1944;;;;
2020/11/01 09:43:01;;;;;;;5.3;2;;;;;;;13.14;63.39355;942.1984;;;;
2020/11/01 09:45:27;;;;;;;3.7;1.7;;;;;;;13.1;65.03125;942.243;;;;
2020/11/01 09:47:58;;;;;;;4.4;1.5;;;;;;;13.22;64.7959;942.2227;;;;
2020/11/01 09:50:25;;;;;;;5.2;2.1;;;;;;;13.27;63.44629;942.223;;;;
2020/11/01 09:52:50;;;;;;;4.3;1.9;;;;;;;13.28;61.84082;942.2054;;;;
2020/11/01 09:55:16;;;;;;;4.6;1.8;;;;;;;13.21;63.53027;942.305;;;;
2020/11/01 09:57:41;;;;;;;4.2;2.1;;;;;;;13.29;64.4375;942.2742;;;;
2020/11/01 10:00:13;;;;;;;5;2.7;;;;;;;13.27;64.89453;942.3005;;;;
2020/11/01 10:02:40;;;;;;;3.7;2.1;;;;;;;13.33;63.79883;942.3423;;;;
2020/11/01 10:05:05;;;;;;;4;2.6;;;;;;;13.56;64.68555;942.2999;;;;
2020/11/01 10:07:31;;;;;;;6.5;2.5;;;;;;;13.73;63.87012;942.2921;;;;
2020/11/01 10:09:56;;;;;;;5.6;2;;;;;;;13.73;61.5127;942.2696;;;;
2020/11/01 10:12:22;;;;;;;4.7;1.8;;;;;;;13.91;60.93945;942.2712;;;;
2020/11/01 10:14:48;;;;;;;3.8;1.5;;;;;;;14.07;58.72949;942.2648;;;;
2020/11/01 10:17:15;;;;;;;1.9;1.5;;;;;;;14.24;58.05957;942.2967;;;;
2020/11/01 10:19:40;;;;;;;6.9;2.7;;;;;;;14.39;59.66016;942.2994;;;;
2020/11/01 10:22:06;;;;;;;6.1;2.4;;;;;;;14.53;60.61035;942.2551;;;;
2020/11/01 10:24:31;;;;;;;2.3;1.5;;;;;;;14.65;58.96875;942.262;;;;
2020/11/01 10:26:57;;;;;;;2.6;1.5;;;;;;;14.76;57.8418;942.2651;;;;
2020/11/01 10:29:23;;;;;;;1.5;1;;;;;;;14.68;53.62305;942.2139;;;;
2020/11/01 10:31:50;;;;;;;2.9;1.5;;;;;;;14.48;55.07422;942.1919;;;;
2020/11/01 10:34:15;;;;;;;3.4;1.7;;;;;;;14.55;55.47461;942.24;;;;
2020/11/01 10:36:41;;;;;;;5.9;2.5;;;;;;;14.59;54.68457;942.2344;;;;
2020/11/01 10:39:07;;;;;;;5.9;2.1;;;;;;;14.61;56.38086;942.2095;;;;
2020/11/01 10:41:33;;;;;;;2.9;1.9;;;;;;;14.69;57.09375;942.1761;;;;
2020/11/01 10:43:58;;;;;;;3.6;2;;;;;;;14.78;56.94434;942.225;;;;
2020/11/01 10:46:24;;;;;;;1.7;1.2;;;;;;;14.93;57.39063;942.1266;;;;
2020/11/01 10:48:50;;;;;;;2.6;1.4;;;;;;;15;56.76563;942.1537;;;;
2020/11/01 10:51:16;;;;;;;2.1;1.4;;;;;;;15.1;55.95996;942.1756;;;;
2020/11/01 10:53:41;;;;;;;2;1.4;;;;;;;15.35;56.6377;942.1746;;;;
2020/11/01 10:56:07;;;;;;;2.6;1.3;;;;;;;15.58;56.28711;942.1902;;;;
2020/11/01 10:58:32;;;;;;;2.6;1.5;;;;;;;15.72;54.83789;942.199;;;;
2020/11/01 11:01:00;;;;;;;1.2;1;;;;;;;15.85;54.20703;942.2293;;;;
2020/11/01 11:03:25;;;;;;;3.5;1;;;;;;;15.91;52.54883;942.2676;;;;
2020/11/01 11:05:51;;;;;;;8.1;1.2;;;;;;;16.04;53.58203;942.2785;;;;
2020/11/01 11:08:17;;;;;;;0.7;0.7;;;;;;;15.97;49.875;942.256;;;;
2020/11/01 11:10:45;;;;;;;0.9;0.7;;;;;;;15.88;50.24512;942.2211;;;;
2020/11/01 11:13:10;;;;;;;2;1.2;;;;;;;15.75;50.87793;942.1613;;;;
2020/11/01 11:15:38;;;;;;;2.3;1.3;;;;;;;15.73;50.5625;942.04;;;;
2020/11/01 11:18:03;;;;;;;3.7;1.5;;;;;;;15.64;53.1748;942.1023;;;;
2020/11/01 11:20:32;;;;;;;0.9;0.8;;;;;;;15.73;50.78223;942.1316;;;;
2020/11/01 11:22:57;;;;;;;2.5;1.1;;;;;;;15.72;50.45801;942.1019;;;;
2020/11/01 11:25:25;;;;;;;1.9;1.3;;;;;;;15.72;50.13574;942.1147;;;;
2020/11/01 11:27:50;;;;;;;2.9;1.8;;;;;;;15.61;51.38086;942.0723;;;;
2020/11/01 11:30:20;;;;;;;5;2.2;;;;;;;15.58;51.04199;941.9558;;;;
2020/11/01 11:32:48;;;;;;;3;1.7;;;;;;;15.68;51.64355;941.9841;;;;
2020/11/01 11:35:13;;;;;;;2.5;1.4;;;;;;;15.74;53.71973;942.0592;;;;
2020/11/01 11:37:39;;;;;;;1.5;0.9;;;;;;;15.64;53.72949;942.1336;;;;
2020/11/01 11:40:04;;;;;;;1.2;1;;;;;;;15.64;51.03906;942.0966;;;;
2020/11/01 11:42:31;;;;;;;1.4;1;;;;;;;15.66;52.94727;942.0564;;;;
2020/11/01 11:44:56;;;;;;;3.7;1;;;;;;;15.71;52.38672;942.0747;;;;
2020/11/01 11:47:22;;;;;;;4.6;1.2;;;;;;;15.75;52.96973;942.0359;;;;
2020/11/01 11:49:47;;;;;;;1.4;1.1;;;;;;;15.84;53.60352;942.1097;;;;
2020/11/01 11:52:13;;;;;;;2.1;1.2;;;;;;;15.9;53.83105;942.0781;;;;
2020/11/01 11:54:39;;;;;;;2.9;1.3;;;;;;;15.88;53.18164;942.1392;;;;
2020/11/01 11:57:05;;;;;;;2.7;1.2;;;;;;;15.79;52.99707;942.1506;;;;
2020/11/01 11:59:30;;;;;;;2.5;1.1;;;;;;;15.78;53.12305;942.0903;;;;
2020/11/01 12:01:57;;;;;;;1.1;0.9;;;;;;;15.73;53.45117;942.0352;;;;
2020/11/01 12:04:22;;;;;;;2.6;1.3;;;;;;;15.72;54.15625;942.0328;;;;
2020/11/01 12:06:48;;;;;;;3;1;;;;;;;15.8;56.31543;942.0156;;;;
2020/11/01 12:09:13;;;;;;;3.8;1.5;;;;;;;15.86;57.04004;941.9562;;;;
2020/11/01 12:11:39;;;;;;;3;1.4;;;;;;;15.82;54.53711;941.913;;;;
2020/11/01 12:14:04;;;;;;;2.2;1.2;;;;;;;15.88;55.50488;941.9529;;;;
2020/11/01 12:16:31;;;;;;;2.1;1.5;;;;;;;15.92;56.87305;941.9455;;;;
2020/11/01 12:18:56;;;;;;;4.6;1.6;;;;;;;15.92;56.42285;941.8892;;;;
2020/11/01 12:21:22;;;;;;;2;1.5;;;;;;;15.76;54.96875;941.8416;;;;
2020/11/01 12:23:47;;;;;;;7;2.2;;;;;;;15.67;55.08594;941.8669;;;;
2020/11/01 12:26:13;;;;;;;1.6;1.2;;;;;;;15.63;55.02246;941.8655;;;;
2020/11/01 12:28:37;;;;;;;4.7;1.3;;;;;;;15.48;54.7041;941.8951;;;;
2020/11/01 12:31:02;;;;;;;2;1.5;;;;;;;15.33;54.81055;941.8087;;;;
2020/11/01 12:33:30;;;;;;;3.7;1.9;;;;;;;15.33;55.61914;941.7205;;;;
2020/11/01 12:35:57;;;;;;;3.8;2.4;;;;;;;15.41;57.37305;941.7683;;;;
2020/11/01 12:38:22;;;;;;;6.2;1.9;;;;;;;15.45;58.3252;941.8567;;;;
2020/11/01 12:40:49;;;;;;;4.2;1.7;;;;;;;15.55;59.71289;941.9382;;;;
2020/11/01 12:43:14;;;;;;;3.9;2.1;;;;;;;15.68;60.03125;941.9889;;;;
2020/11/01 12:45:42;;;;;;;2.9;1.7;;;;;;;15.76;63.66016;942.0214;;;;
2020/11/01 12:48:07;;;;;;;2.7;1.3;;;;;;;15.83;64.10938;941.8528;;;;
2020/11/01 12:50:32;;;;;;;2.5;1.6;;;;;;;15.9;63.32227;941.8748;;;;
2020/11/01 12:52:58;;;;;;;3.4;1.9;;;;;;;15.93;63.68457;941.866;;;;
2020/11/01 12:55:23;;;;;;;3;1.9;;;;;;;15.86;62.58789;941.8791;;;;
2020/11/01 12:57:48;;;;;;;6.9;2.1;;;;;;;15.87;64.86621;941.7739;;;;
2020/11/01 13:00:21;;;;;;;4.8;2;;;;;;;15.8;63.58398;941.7885;;;;
2020/11/01 13:02:49;;;;;;;6.2;2.6;;;;;;;15.73;64.58008;941.7518;;;;
2020/11/01 13:05:14;;;;;;;4;2.6;;;;;;;15.79;64.99219;941.7218;;;;
2020/11/01 13:07:40;;;;;;;3.7;1.7;;;;;;;15.89;65.62109;941.7231;;;;
2020/11/01 13:10:05;;;;;;;3.4;1.8;;;;;;;15.98;66.50195;941.7499;;;;
2020/11/01 13:12:32;;;;;;;2.7;2.1;;;;;;;15.85;69.02246;941.7097;;;;
2020/11/01 13:14:57;;;;;;;4.7;3;;;;;;;15.78;69.94922;941.7137;;;;
2020/11/01 13:17:24;;;;;;;3.2;2;;;;;;;15.94;69.64941;941.6972;;;;
2020/11/01 13:19:49;;;;;;;1.7;1;;;;;;;16;68.60938;941.5964;;;;
2020/11/01 13:22:16;;;;;;;1.7;1;;;;;;;16.02;68.32324;941.517;;;;
2020/11/01 13:24:40;;;;;;;0.7;0.7;;;;;;;16.03;68.12793;941.5314;;;;
2020/11/01 13:27:08;;;;;;;1;0.8;;;;;;;16.14;67.14941;941.5259;;;;
2020/11/01 13:29:33;;;;;;;1.8;1.1;;;;;;;16.23;66.54883;941.3865;;;;
2020/11/01 13:32:01;;;;;;;3.5;1.4;;;;;;;16.26;65.82617;941.3848;;;;
2020/11/01 13:34:26;;;;;;;1.7;1.2;;;;;;;16.27;65.67676;941.3461;;;;
2020/11/01 13:36:52;;;;;;;3.8;1.4;;;;;;;16.07;65.9248;941.3063;;;;
2020/11/01 13:39:17;;;;;;;2.7;1.7;;;;;;;16.02;65.71973;941.3337;;;;
2020/11/01 13:41:43;;;;;;;4.6;2;;;;;;;16.09;65.36035;941.3086;;;;
2020/11/01 13:44:10;;;;;;;4.1;1.7;;;;;;;16.11;63.37598;941.2906;;;;
2020/11/01 13:46:35;;;;;;;6.1;2.4;;;;;;;16.12;63.20313;941.2303;;;;
2020/11/01 13:49:02;;;;;;;3.7;2.2;;;;;;;16.27;63.08496;941.1854;;;;
2020/11/01 13:51:27;;;;;;;3.1;2;;;;;;;16.35;63.74609;941.1863;;;;
2020/11/01 13:53:54;;;;;;;3.3;2.1;;;;;;;16.19;61.7666;941.1633;;;;
2020/11/01 13:56:19;;;;;;;2.2;1.6;;;;;;;16.25;62.57422;941.122;;;;
2020/11/01 13:58:48;;;;;;;5.1;2;;;;;;;15.85;60.06543;941.0126;;;;
2020/11/01 14:01:12;;;;;;;7.3;2.3;;;;;;;15.93;60.88672;940.9246;;;;
2020/11/01 14:03:40;;;;;;;2.9;1.6;;;;;;;16.12;61.27246;940.868;;;;
2020/11/01 14:06:05;;;;;;;3.8;2.1;;;;;;;16.07;61.51855;940.9408;;;;
2020/11/01 14:08:32;;;;;;;2.6;1.5;;;;;;;16.13;60.97363;940.8744;;;;
2020/11/01 14:10:57;;;;;;;2.3;1.7;;;;;;;16.04;59.7793;940.8567;;;;
2020/11/01 14:13:23;;;;;;;3;2;;;;;;;15.98;62.11914;940.8777;;;;
2020/11/01 14:15:48;;;;;;;1.7;1.3;;;;;;;15.92;63.33496;940.8387;;;;
2020/11/01 14:18:17;;;;;;;3.1;1.5;;;;;;;15.93;64.08789;940.7198;;;;
2020/11/01 14:20:42;;;;;;;3;1.8;;;;;;;15.8;64.49707;940.6778;;;;
2020/11/01 14:23:09;;;;;;;2.2;1.6;;;;;;;15.5;64.19922;940.6172;;;;
2020/11/01 14:25:35;;;;;;;1.2;0.9;;;;;;;15.3;58.08496;940.6783;;;;
2020/11/01 14:28:05;;;;;;;1;0.8;;;;;;;15.47;58.89453;940.6833;;;;
2020/11/01 14:30:39;;;;;;;1.3;0.8;;;;;;;15.54;61.76855;940.6741;;;;
2020/11/01 14:33:06;;;;;;;1.9;1.1;;;;;;;15.57;61.94434;940.6586;;;;
2020/11/01 14:35:33;;;;;;;1;0.7;;;;;;;15.63;61.26172;940.7014;;;;
2020/11/01 14:37:59;;;;;;;2.6;1.2;;;;;;;15.69;61.44238;940.6528;;;;
2020/11/01 14:40:24;;;;;;;0.9;0.8;;;;;;;15.71;61.46777;940.6407;;;;
2020/11/01 14:42:52;;;;;;;1.4;1;;;;;;;15.63;61.37598;940.6011;;;;
2020/11/01 14:45:17;;;;;;;2.2;1.1;;;;;;;15.68;62.22656;940.5542;;;;
2020/11/01 14:47:45;;;;;;;2.4;1.1;;;;;;;15.59;63.19727;940.5617;;;;
2020/11/01 14:50:11;;;;;;;1.6;1.1;;;;;;;15.57;64.66016;940.6049;;;;
2020/11/01 14:52:38;;;;;;;2.4;1.5;;;;;;;15.51;65.95605;940.6558;;;;
2020/11/01 14:55:03;;;;;;;4.8;2.6;;;;;;;15.46;66.15723;940.6263;;;;
2020/11/01 14:57:29;;;;;;;4.2;2.3;;;;;;;15.44;65.84277;940.6602;;;;
2020/11/01 14:59:54;;;;;;;4.1;2.1;;;;;;;15.38;65.89063;940.6962;;;;
2020/11/01 15:02:19;;;;;;;5.3;2.5;;;;;;;15.33;65.20117;940.7222;;;;
2020/11/01 15:04:47;;;;;;;4;1.8;;;;;;;15.41;65.45605;940.7017;;;;
2020/11/01 15:07:12;;;;;;;6;2.2;;;;;;;15.39;64.7832;940.8069;;;;
2020/11/01 15:09:37;;;;;;;2.2;1.7;;;;;;;15.39;64.93359;940.7436;;;;
2020/11/01 15:12:03;;;;;;;4;1.9;;;;;;;15.31;66.5625;940.7551;;;;
2020/11/01 15:14:28;;;;;;;4.4;1.9;;;;;;;15.28;68.51758;940.7274;;;;
2020/11/01 15:16:53;;;;;;;7.6;1.8;;;;;;;15.21;69.59277;940.7505;;;;
2020/11/01 15:19:20;;;;;;;4.8;2.3;;;;;;;15.05;69.7627;940.6365;;;;
2020/11/01 15:21:45;;;;;;;3.8;1.6;;;;;;;15.02;69.91895;940.6222;;;;
2020/11/01 15:24:11;;;;;;;6;2.1;;;;;;;15.06;70.27148;940.6397;;;;
2020/11/01 15:26:36;;;;;;;3.2;1.9;;;;;;;15.08;70.31055;940.5811;;;;
2020/11/01 15:29:05;;;;;;;3.9;1.9;;;;;;;15.15;70.01074;940.6394;;;;
2020/11/01 15:31:30;;;;;;;4.8;1.5;;;;;;;15.17;70.08203;940.6121;;;;
2020/11/01 15:33:55;;;;;;;2.5;1.4;;;;;;;15.22;70.10156;940.6489;;;;
2020/11/01 15:36:20;;;;;;;6.8;1.4;;;;;;;15.24;70.2334;940.608;;;;